Cooks, MI (49817)

11:34 AM EDT on August 24, 2016 (GMT -0400)
Garden Corners, Michigan | | Change Station

Elev 587 ft 45.90 °N, 86.55 °W | Updated 4 minutes ago

Light Rain
Light Rain
68.2 °F
Feels Like 68.2 °F
N
4.0
Wind Variable Wind from SE
Gusts 23.0 mph

Today
High -- | Low -- °F
--% Chance of Precip.
Yesterday
High -- | Low -- °F
Precip. -- in
Pressure 29.85 in
Visibility 5.0 miles
Clouds Overcast 300 ft
Dew Point 68 °F
Humidity 98%
Rainfall 0.33 in
Snow Depth Not available.
6:57 AM 8:38 PM
Waning Gibbous, 56% visible
METAR KISQ 241514Z AUTO 14009G15KT 5SM -RA OVC003 19/18 A2985 RMK AO2 P0001 T01920180
Pressure 29.85 in
Visibility 5.0 miles
Clouds Overcast 300 ft
Dew Point 68 °F
Humidity 98%
Rainfall 0.33 in
Snow Depth Not available.
6:57 AM 8:38 PM
Waning Gibbous, 56% visible
METAR KISQ 241514Z AUTO 14009G15KT 5SM -RA OVC003 19/18 A2985 RMK AO2 P0001 T01920180

10-Day Weather Forecast

Almanac

Astronomy

Aug. 24, 2016 Rise Set
Actual Time
Civil Twilight
Nautical Twilight
Astronomical Twilight
Moon
Length of Visible Light
Length of Day
Tomorrow will be .
, % of the Moon is Illuminated

Today's Extremes

State Highs State Lows

Community

WunderPhotos

Upload Photos

1,934,618 photos uploaded!

WunderBlog® & News

Nearby

Air Quality

  Air Quality AQ Index Pollutant
Not available.

Snow Depth

Station Depth Elevation

Earthquake Activity

City Distance Mag. Time & Date
Minimum magnitude displayed is 2.5.

Coastal Water Temperatures

Place Temperature

Stations

Nearby Weather Stations

Station Location Temp. Windchill Dew Point Humidity Wind Precip. Elev Updated Type
                   

Watches & Warnings

There are currently no watches in effect.